Time;durP1;ratioP1;P1;durP2;ratioP2;P2;SDS_P1;SDS_P2;PMS_P1;PMS_P2;Temp;Humidity;BMP_temperature;BMP_pressure;BME280_temperature;BME280_humidity;BME280_pressure;Samples;Min_cycle;Max_cycle;Signal;HPM_P1;HPM_P2
2023/09/08 00:04:32;;;;;;;7.28;4.00;;;;;;;;;;10279765;28;20453;-82
2023/09/08 00:09:36;;;;;;;5.60;3.92;;;;;;;;;;10261182;28;20479;-83
2023/09/08 00:14:39;;;;;;;6.53;4.15;;;;;;;;;;10264332;28;20422;-83
2023/09/08 00:19:41;;;;;;;5.93;3.97;;;;;;;;;;10266664;28;20475;-83
2023/09/08 00:24:44;;;;;;;5.30;3.90;;;;;;;;;;10266889;28;20463;-82
2023/09/08 00:29:47;;;;;;;5.32;3.90;;;;;;;;;;10264487;28;20420;-83
2023/09/08 00:34:49;;;;;;;5.28;4.00;;;;;;;;;;10270713;28;20830;-83
2023/09/08 00:39:53;;;;;;;5.57;4.03;;;;;;;;;;10279390;28;20469;-83
2023/09/08 00:44:55;;;;;;;6.28;4.10;;;;;;;;;;10267600;28;21056;-82
2023/09/08 00:49:58;;;;;;;4.90;4.00;;;;;;;;;;10266737;28;20566;-82
2023/09/08 00:55:02;;;;;;;7.45;4.57;;;;;;;;;;10272801;28;20414;-83
2023/09/08 01:00:06;;;;;;;6.18;4.30;;;;;;;;;;10266214;28;20466;-83
2023/09/08 01:05:09;;;;;;;5.53;4.05;;;;;;;;;;10307491;28;20539;-82
2023/09/08 01:10:13;;;;;;;6.55;4.40;;;;;;;;;;10309471;28;20446;-83
2023/09/08 01:15:16;;;;;;;5.00;4.50;;;;;;;;;;10306033;28;20450;-82
2023/09/08 01:20:22;;;;;;;5.70;4.63;;;;;;;;;;10311461;28;20422;-82
2023/09/08 01:25:27;;;;;;;5.68;4.65;;;;;;;;;;10312475;28;20516;-83
2023/09/08 01:30:32;;;;;;;5.97;4.50;;;;;;;;;;10318234;28;20456;-82
2023/09/08 01:35:35;;;;;;;6.27;4.90;;;;;;;;;;10321752;28;20408;-82
2023/09/08 01:40:38;;;;;;;5.93;4.60;;;;;;;;;;10321699;28;20828;-83
2023/09/08 01:45:41;;;;;;;5.78;5.05;;;;;;;;;;10317285;28;20845;-83
2023/09/08 01:50:43;;;;;;;5.40;4.83;;;;;;;;;;10316807;28;20412;-82
2023/09/08 01:55:47;;;;;;;5.72;4.80;;;;;;;;;;10315624;28;20417;-83
2023/09/08 02:00:50;;;;;;;5.23;4.60;;;;;;;;;;10314956;28;20460;-83
2023/09/08 02:05:53;;;;;;;7.00;4.80;;;;;;;;;;10315967;28;20463;-83
2023/09/08 02:10:57;;;;;;;5.37;4.20;;;;;;;;;;10316061;28;20426;-82
2023/09/08 02:15:59;;;;;;;6.30;4.80;;;;;;;;;;10320842;28;20530;-82
2023/09/08 02:21:02;;;;;;;6.63;4.55;;;;;;;;;;10318319;28;20415;-82
2023/09/08 02:26:05;;;;;;;6.95;4.95;;;;;;;;;;10326655;28;20496;-82
2023/09/08 02:31:08;;;;;;;6.70;4.70;;;;;;;;;;10321216;28;20766;-82
2023/09/08 02:36:10;;;;;;;7.17;5.00;;;;;;;;;;10320218;28;20480;-82
2023/09/08 02:41:14;;;;;;;8.40;5.40;;;;;;;;;;10319716;28;20464;-82
2023/09/08 02:46:16;;;;;;;5.72;4.75;;;;;;;;;;10318253;28;20460;-82
2023/09/08 02:51:18;;;;;;;8.80;5.25;;;;;;;;;;10319159;28;20484;-82
2023/09/08 02:56:22;;;;;;;7.78;4.97;;;;;;;;;;10321634;28;20435;-82
2023/09/08 03:01:24;;;;;;;6.38;4.78;;;;;;;;;;10319597;28;20413;-82
2023/09/08 03:06:27;;;;;;;5.45;4.85;;;;;;;;;;10319647;28;20488;-82
2023/09/08 03:11:30;;;;;;;7.23;4.50;;;;;;;;;;10314014;28;20456;-82
2023/09/08 03:16:33;;;;;;;5.67;4.30;;;;;;;;;;10315561;28;20489;-83
2023/09/08 03:21:35;;;;;;;6.57;4.45;;;;;;;;;;10319058;28;20466;-83
2023/09/08 03:26:40;;;;;;;4.60;4.03;;;;;;;;;;10316129;28;20468;-83
2023/09/08 03:31:42;;;;;;;5.88;4.25;;;;;;;;;;10310947;28;20414;-82
2023/09/08 03:36:44;;;;;;;5.40;4.20;;;;;;;;;;10311366;28;20495;-82
2023/09/08 03:41:48;;;;;;;6.78;4.50;;;;;;;;;;10312415;28;20417;-82
2023/09/08 03:46:51;;;;;;;5.90;4.60;;;;;;;;;;10309604;28;20461;-82
2023/09/08 03:51:53;;;;;;;5.57;4.40;;;;;;;;;;10310814;28;20765;-82
2023/09/08 03:56:57;;;;;;;6.43;4.40;;;;;;;;;;10313223;28;20444;-83
2023/09/08 04:02:00;;;;;;;6.10;4.63;;;;;;;;;;10309098;28;20519;-82
2023/09/08 04:07:03;;;;;;;8.63;4.60;;;;;;;;;;10306872;28;20410;-82
2023/09/08 04:12:10;;;;;;;7.20;5.03;;;;;;;;;;10308638;28;20486;-82
2023/09/08 04:17:13;;;;;;;6.03;4.32;;;;;;;;;;10309017;28;20410;-83
2023/09/08 04:22:15;;;;;;;6.97;5.10;;;;;;;;;;10312629;28;20444;-82
2023/09/08 04:27:19;;;;;;;6.72;4.78;;;;;;;;;;10314645;28;20409;-83
2023/09/08 04:32:21;;;;;;;7.63;5.20;;;;;;;;;;10311351;28;20503;-82
2023/09/08 04:37:23;;;;;;;6.60;4.90;;;;;;;;;;10311622;28;20420;-82
2023/09/08 04:42:27;;;;;;;6.00;4.97;;;;;;;;;;10309097;28;20428;-82
2023/09/08 04:47:29;;;;;;;6.47;4.88;;;;;;;;;;10312628;28;20980;-83
2023/09/08 04:52:32;;;;;;;9.98;5.10;;;;;;;;;;10318795;28;20444;-82
2023/09/08 04:57:35;;;;;;;6.13;4.60;;;;;;;;;;10316463;28;20476;-82
2023/09/08 05:02:38;;;;;;;7.43;5.07;;;;;;;;;;10321283;28;20797;-82
2023/09/08 05:07:40;;;;;;;6.35;4.53;;;;;;;;;;10314566;28;20463;-81
2023/09/08 05:12:43;;;;;;;7.35;5.30;;;;;;;;;;10324986;28;20931;-82
2023/09/08 05:17:46;;;;;;;8.40;5.78;;;;;;;;;;10315105;28;20416;-82
2023/09/08 05:22:48;;;;;;;8.27;5.27;;;;;;;;;;10317693;28;20542;-82
2023/09/08 05:27:52;;;;;;;8.00;5.28;;;;;;;;;;10315621;28;20410;-82
2023/09/08 05:32:54;;;;;;;8.38;5.40;;;;;;;;;;10313388;28;20412;-82
2023/09/08 05:37:56;;;;;;;7.68;5.20;;;;;;;;;;10321002;28;20413;-82
2023/09/08 05:43:00;;;;;;;7.67;5.13;;;;;;;;;;10319128;28;20519;-83
2023/09/08 05:48:03;;;;;;;7.10;5.20;;;;;;;;;;10316823;28;20428;-82
2023/09/08 05:53:06;;;;;;;7.00;4.73;;;;;;;;;;10310665;28;20441;-82
2023/09/08 05:58:10;;;;;;;7.03;4.95;;;;;;;;;;10320247;28;20980;-81
2023/09/08 06:03:13;;;;;;;7.67;5.03;;;;;;;;;;10312852;28;20609;-81
2023/09/08 06:08:15;;;;;;;6.32;4.88;;;;;;;;;;10310847;28;20877;-82
2023/09/08 06:13:19;;;;;;;7.63;5.20;;;;;;;;;;10309481;28;20904;-82
2023/09/08 06:18:21;;;;;;;7.72;5.03;;;;;;;;;;10309779;28;20416;-82
2023/09/08 06:23:23;;;;;;;6.95;5.00;;;;;;;;;;10317433;28;20915;-82
2023/09/08 06:28:27;;;;;;;5.95;5.05;;;;;;;;;;10313495;28;20466;-81
2023/09/08 06:33:30;;;;;;;7.77;5.60;;;;;;;;;;10313127;28;20440;-81
2023/09/08 06:38:32;;;;;;;7.25;5.32;;;;;;;;;;10306223;28;20405;-81
2023/09/08 06:43:36;;;;;;;8.93;5.25;;;;;;;;;;10308607;28;20775;-81
2023/09/08 06:48:38;;;;;;;8.82;5.47;;;;;;;;;;10308352;28;20438;-82
2023/09/08 06:53:40;;;;;;;9.23;5.57;;;;;;;;;;10312250;28;20424;-81
2023/09/08 06:58:44;;;;;;;9.38;5.18;;;;;;;;;;10312060;28;20412;-81
2023/09/08 07:03:46;;;;;;;6.23;5.00;;;;;;;;;;10312678;28;20460;-82
2023/09/08 07:08:50;;;;;;;10.82;5.10;;;;;;;;;;10310087;28;20413;-81
2023/09/08 07:13:53;;;;;;;9.20;5.35;;;;;;;;;;10305754;28;20414;-81
2023/09/08 07:18:56;;;;;;;8.40;4.93;;;;;;;;;;10305042;28;20462;-81
2023/09/08 07:23:59;;;;;;;8.45;4.95;;;;;;;;;;10314443;28;20456;-82
2023/09/08 07:29:02;;;;;;;8.18;4.70;;;;;;;;;;10312321;28;20565;-81
2023/09/08 07:34:05;;;;;;;6.40;4.65;;;;;;;;;;10303950;28;20414;-82
2023/09/08 07:39:07;;;;;;;6.30;4.10;;;;;;;;;;10310697;28;20417;-82
2023/09/08 07:44:11;;;;;;;5.10;3.53;;;;;;;;;;10308390;28;20470;-82
2023/09/08 07:49:14;;;;;;;4.47;3.67;;;;;;;;;;10316528;28;20440;-82
2023/09/08 07:54:16;;;;;;;4.73;3.60;;;;;;;;;;10306492;28;20958;-82
2023/09/08 07:59:20;;;;;;;4.80;3.70;;;;;;;;;;10303666;28;20478;-82
2023/09/08 08:04:22;;;;;;;4.40;3.53;;;;;;;;;;10299482;28;20462;-82
2023/09/08 08:09:25;;;;;;;6.37;3.50;;;;;;;;;;10299422;28;20465;-81
2023/09/08 08:14:28;;;;;;;4.67;3.50;;;;;;;;;;10304755;28;20475;-82
2023/09/08 08:19:31;;;;;;;4.38;3.00;;;;;;;;;;10295201;28;20452;-82
2023/09/08 08:24:33;;;;;;;4.22;3.60;;;;;;;;;;10295505;28;20507;-82
2023/09/08 08:29:37;;;;;;;5.22;3.45;;;;;;;;;;10293276;28;20438;-82
2023/09/08 08:34:39;;;;;;;4.18;3.20;;;;;;;;;;10301056;28;20507;-82
2023/09/08 08:39:41;;;;;;;5.65;3.58;;;;;;;;;;10303127;28;20452;-82
2023/09/08 08:44:45;;;;;;;5.18;3.78;;;;;;;;;;10306025;28;20508;-82
2023/09/08 08:49:50;;;;;;;4.00;3.28;;;;;;;;;;10312521;28;20461;-82
2023/09/08 08:54:53;;;;;;;4.50;3.80;;;;;;;;;;10311173;28;20470;-82
2023/09/08 08:59:57;;;;;;;3.80;3.38;;;;;;;;;;10308653;28;20508;-82
2023/09/08 09:05:00;;;;;;;4.10;3.43;;;;;;;;;;10299422;28;20930;-82
2023/09/08 09:10:04;;;;;;;5.03;3.42;;;;;;;;;;10301793;28;20493;-82
2023/09/08 09:15:09;;;;;;;4.10;3.30;;;;;;;;;;10308397;28;20443;-82
2023/09/08 09:20:17;;;;;;;3.88;3.50;;;;;;;;;;10298398;28;20434;-82
2023/09/08 09:25:23;;;;;;;6.75;3.60;;;;;;;;;;10300677;28;20530;-82
2023/09/08 09:30:27;;;;;;;4.55;3.55;;;;;;;;;;10308256;28;20571;-83
2023/09/08 09:35:43;;;;;;;4.75;3.00;;;;;;;;;;10301127;28;20446;-83
2023/09/08 09:40:46;;;;;;;4.90;3.65;;;;;;;;;;10301088;28;20812;-83
2023/09/08 09:45:50;;;;;;;4.87;3.60;;;;;;;;;;10310212;28;20500;-83
2023/09/08 09:50:53;;;;;;;4.45;3.53;;;;;;;;;;10321214;28;20444;-82
2023/09/08 09:55:58;;;;;;;5.60;3.50;;;;;;;;;;10308034;28;20452;-83
2023/09/08 10:01:03;;;;;;;7.17;3.27;;;;;;;;;;10314235;28;20454;-82
2023/09/08 10:06:06;;;;;;;3.80;3.22;;;;;;;;;;10312015;28;20873;-83
2023/09/08 10:11:11;;;;;;;4.67;3.30;;;;;;;;;;10311414;28;20420;-82
2023/09/08 10:16:17;;;;;;;4.63;3.58;;;;;;;;;;10311018;28;20478;-82
2023/09/08 10:21:22;;;;;;;4.50;3.33;;;;;;;;;;10309982;28;20873;-82
2023/09/08 10:26:28;;;;;;;5.13;3.43;;;;;;;;;;10315633;28;20857;-82
2023/09/08 10:31:32;;;;;;;6.13;3.42;;;;;;;;;;10308240;28;20510;-82
2023/09/08 10:36:35;;;;;;;3.80;3.40;;;;;;;;;;10309275;28;20412;-83
2023/09/08 10:41:38;;;;;;;3.63;3.13;;;;;;;;;;10306055;28;20448;-84
2023/09/08 10:46:45;;;;;;;6.28;3.45;;;;;;;;;;10310465;28;20468;-83
2023/09/08 10:51:51;;;;;;;3.75;3.35;;;;;;;;;;10313875;28;21120;-83
2023/09/08 10:56:56;;;;;;;6.20;3.20;;;;;;;;;;10313060;28;20781;-84
2023/09/08 11:02:07;;;;;;;4.28;3.33;;;;;;;;;;10305238;28;20851;-83
2023/09/08 11:07:09;;;;;;;4.27;3.33;;;;;;;;;;10309765;28;20491;-83
2023/09/08 11:12:12;;;;;;;4.70;3.40;;;;;;;;;;10308645;28;20483;-83
2023/09/08 11:17:16;;;;;;;4.43;3.45;;;;;;;;;;10316259;28;20436;-83
2023/09/08 11:22:19;;;;;;;4.25;3.17;;;;;;;;;;10309413;28;20409;-84
2023/09/08 11:27:22;;;;;;;3.90;3.30;;;;;;;;;;10312113;28;20558;-83
2023/09/08 11:32:26;;;;;;;6.50;3.40;;;;;;;;;;10302178;28;20590;-84
2023/09/08 11:37:28;;;;;;;3.80;3.40;;;;;;;;;;10303070;28;20503;-83
2023/09/08 11:42:31;;;;;;;4.05;3.33;;;;;;;;;;10301423;28;20436;-83
2023/09/08 11:47:35;;;;;;;4.80;3.20;;;;;;;;;;10299412;28;20464;-83
2023/09/08 11:52:37;;;;;;;4.65;3.38;;;;;;;;;;10304363;28;20507;-83
2023/09/08 11:57:43;;;;;;;4.03;3.60;;;;;;;;;;10306052;28;20516;-83
2023/09/08 12:02:48;;;;;;;4.72;3.30;;;;;;;;;;10307990;28;20457;-84
2023/09/08 12:07:54;;;;;;;4.15;3.63;;;;;;;;;;10308107;28;20512;-84
2023/09/08 12:13:00;;;;;;;4.40;3.38;;;;;;;;;;10312370;28;20448;-83
2023/09/08 12:18:06;;;;;;;7.22;4.30;;;;;;;;;;10311841;28;20503;-83
2023/09/08 12:23:21;;;;;;;4.38;3.10;;;;;;;;;;10316425;28;20507;-84
2023/09/08 12:28:23;;;;;;;4.17;3.20;;;;;;;;;;10310778;28;20468;-84
2023/09/08 12:33:29;;;;;;;4.83;2.97;;;;;;;;;;10306069;28;20472;-83
2023/09/08 12:38:33;;;;;;;5.50;3.30;;;;;;;;;;10308081;28;20404;-86
2023/09/08 12:43:36;;;;;;;4.20;3.20;;;;;;;;;;10304903;28;20410;-86
2023/09/08 12:48:42;;;;;;;6.18;3.30;;;;;;;;;;10311888;28;20515;-86
2023/09/08 12:53:47;;;;;;;3.42;3.10;;;;;;;;;;10315065;28;20897;-86
2023/09/08 12:58:51;;;;;;;4.03;3.58;;;;;;;;;;10310877;28;20408;-86
2023/09/08 13:03:56;;;;;;;4.90;3.60;;;;;;;;;;10314204;28;20410;-85
2023/09/08 13:09:01;;;;;;;4.40;3.30;;;;;;;;;;10321576;28;20909;-85
2023/09/08 13:14:05;;;;;;;3.35;3.05;;;;;;;;;;10311136;28;20810;-86
2023/09/08 13:19:10;;;;;;;5.20;3.60;;;;;;;;;;10315640;28;20534;-86
2023/09/08 13:24:14;;;;;;;5.30;3.47;;;;;;;;;;10318120;28;20767;-86
2023/09/08 13:29:18;;;;;;;3.53;3.03;;;;;;;;;;10314513;28;20456;-85
2023/09/08 13:34:22;;;;;;;4.28;3.20;;;;;;;;;;10315799;28;20465;-86
2023/09/08 13:39:27;;;;;;;6.32;3.35;;;;;;;;;;10313071;28;20404;-86
2023/09/08 13:44:30;;;;;;;3.57;3.00;;;;;;;;;;10311066;28;20474;-86
2023/09/08 13:49:39;;;;;;;5.38;3.10;;;;;;;;;;10311384;28;20579;-86
2023/09/08 13:54:43;;;;;;;4.65;3.17;;;;;;;;;;10313466;28;20409;-86
2023/09/08 13:59:46;;;;;;;3.50;3.13;;;;;;;;;;10308304;28;20948;-86
2023/09/08 14:04:51;;;;;;;3.85;3.40;;;;;;;;;;10313060;28;20454;-87
2023/09/08 14:09:56;;;;;;;3.20;2.80;;;;;;;;;;10319051;28;20456;-83
2023/09/08 14:15:01;;;;;;;3.28;2.90;;;;;;;;;;10311237;28;20499;-83
2023/09/08 14:20:13;;;;;;;4.90;3.17;;;;;;;;;;10311436;28;20490;-86
2023/09/08 14:25:18;;;;;;;3.30;3.00;;;;;;;;;;10312566;28;20425;-86
2023/09/08 14:30:20;;;;;;;5.03;2.90;;;;;;;;;;10316729;28;20437;-87
2023/09/08 14:35:26;;;;;;;3.20;2.90;;;;;;;;;;10318956;28;20408;-86
2023/09/08 14:40:30;;;;;;;5.47;2.87;;;;;;;;;;10308494;28;20442;-86
2023/09/08 14:45:33;;;;;;;4.18;3.28;;;;;;;;;;10316226;28;20448;-86
2023/09/08 14:50:38;;;;;;;6.43;3.30;;;;;;;;;;10309292;28;20452;-86
2023/09/08 14:55:40;;;;;;;4.15;2.95;;;;;;;;;;10312077;28;20452;-79
2023/09/08 15:00:46;;;;;;;4.72;2.67;;;;;;;;;;10308734;28;20428;-85
2023/09/08 15:05:50;;;;;;;3.03;2.72;;;;;;;;;;10306092;28;20523;-85
2023/09/08 15:10:53;;;;;;;3.53;2.72;;;;;;;;;;10309550;28;20456;-86
2023/09/08 15:15:58;;;;;;;5.35;3.17;;;;;;;;;;10314313;28;20446;-85
2023/09/08 15:21:03;;;;;;;3.90;2.80;;;;;;;;;;10308224;28;20587;-86
2023/09/08 15:26:07;;;;;;;3.47;2.92;;;;;;;;;;10306873;28;20465;-85
2023/09/08 15:31:11;;;;;;;4.25;2.88;;;;;;;;;;10310385;28;20467;-86
2023/09/08 15:36:16;;;;;;;3.80;2.77;;;;;;;;;;10308840;28;20473;-86
2023/09/08 15:41:20;;;;;;;5.68;2.97;;;;;;;;;;10305250;28;20456;-85
2023/09/08 15:46:23;;;;;;;4.70;2.78;;;;;;;;;;10314599;28;20456;-85
2023/09/08 15:51:27;;;;;;;4.80;2.90;;;;;;;;;;10310480;28;20491;-84
2023/09/08 15:56:31;;;;;;;4.97;2.93;;;;;;;;;;10308908;28;20524;-84
2023/09/08 16:01:34;;;;;;;3.45;2.85;;;;;;;;;;10296830;28;20458;-86
2023/09/08 16:06:40;;;;;;;3.93;2.90;;;;;;;;;;10267176;28;20954;-87
2023/09/08 16:11:43;;;;;;;5.57;2.97;;;;;;;;;;10267692;28;20458;-87
2023/09/08 16:16:47;;;;;;;3.88;2.70;;;;;;;;;;10265357;28;20446;-85
2023/09/08 16:21:53;;;;;;;4.05;2.80;;;;;;;;;;10264844;28;20452;-87
2023/09/08 16:26:58;;;;;;;3.60;2.90;;;;;;;;;;10267897;28;20521;-84
2023/09/08 16:32:02;;;;;;;3.60;2.70;;;;;;;;;;10266363;28;20435;-83
2023/09/08 16:37:06;;;;;;;3.25;2.70;;;;;;;;;;10257415;28;20450;-83
2023/09/08 16:42:10;;;;;;;4.25;2.80;;;;;;;;;;10270493;28;21234;-87
2023/09/08 16:47:13;;;;;;;5.90;3.17;;;;;;;;;;10262119;28;20564;-86
2023/09/08 16:52:17;;;;;;;3.53;2.90;;;;;;;;;;10263270;28;20463;-86
2023/09/08 16:57:24;;;;;;;4.15;2.70;;;;;;;;;;10261111;28;20461;-87
2023/09/08 17:02:29;;;;;;;4.95;3.15;;;;;;;;;;10280926;28;20444;-87
2023/09/08 17:07:33;;;;;;;4.43;3.15;;;;;;;;;;10314317;28;20857;-86
2023/09/08 17:12:36;;;;;;;5.75;3.17;;;;;;;;;;10308238;28;20500;-86
2023/09/08 17:17:38;;;;;;;5.10;3.30;;;;;;;;;;10306849;28;20512;-87
2023/09/08 17:22:42;;;;;;;3.30;3.00;;;;;;;;;;10311644;28;21171;-87
2023/09/08 17:27:50;;;;;;;5.78;3.25;;;;;;;;;;10306910;28;20464;-86
2023/09/08 17:32:52;;;;;;;6.20;3.60;;;;;;;;;;10310477;28;20574;-82
2023/09/08 17:37:56;;;;;;;6.80;3.60;;;;;;;;;;10313717;28;20444;-82
2023/09/08 17:42:58;;;;;;;5.93;3.50;;;;;;;;;;10307279;28;20438;-82
2023/09/08 17:48:01;;;;;;;5.43;3.55;;;;;;;;;;10304715;28;20470;-82
2023/09/08 17:53:05;;;;;;;9.65;4.13;;;;;;;;;;10309370;28;20499;-82
2023/09/08 17:58:07;;;;;;;11.90;4.38;;;;;;;;;;10307532;28;20933;-83
2023/09/08 18:03:10;;;;;;;5.43;3.75;;;;;;;;;;10310368;28;20969;-82
2023/09/08 18:08:13;;;;;;;6.93;3.85;;;;;;;;;;10315156;28;20494;-83
2023/09/08 18:13:15;;;;;;;9.88;4.30;;;;;;;;;;10312376;28;20519;-83
2023/09/08 18:18:19;;;;;;;10.77;4.60;;;;;;;;;;10311898;28;20476;-83
2023/09/08 18:23:23;;;;;;;15.77;5.65;;;;;;;;;;10318494;28;20960;-82
2023/09/08 18:28:25;;;;;;;14.88;5.53;;;;;;;;;;10320057;28;20819;-82
2023/09/08 18:33:28;;;;;;;13.50;5.13;;;;;;;;;;10317350;28;20469;-83
2023/09/08 18:38:33;;;;;;;7.23;4.60;;;;;;;;;;10311841;28;20464;-83
2023/09/08 18:43:35;;;;;;;12.05;4.85;;;;;;;;;;10316623;28;20487;-82
2023/09/08 18:48:37;;;;;;;7.82;4.90;;;;;;;;;;10314370;28;20510;-82
2023/09/08 18:53:41;;;;;;;7.95;4.53;;;;;;;;;;10317295;28;20413;-82
2023/09/08 18:58:44;;;;;;;8.87;5.83;;;;;;;;;;10314257;28;20897;-82
2023/09/08 19:03:46;;;;;;;8.15;6.03;;;;;;;;;;10310304;28;20552;-82
2023/09/08 19:08:50;;;;;;;11.55;7.07;;;;;;;;;;10313928;28;20528;-82
2023/09/08 19:13:52;;;;;;;8.20;5.90;;;;;;;;;;10312710;28;20445;-82
2023/09/08 19:18:54;;;;;;;13.07;5.57;;;;;;;;;;10314902;28;20408;-82
2023/09/08 19:23:58;;;;;;;9.50;5.05;;;;;;;;;;10315158;28;20408;-82
2023/09/08 19:29:00;;;;;;;8.33;5.50;;;;;;;;;;10311784;28;20432;-82
2023/09/08 19:34:03;;;;;;;10.50;5.63;;;;;;;;;;10313282;28;20417;-82
2023/09/08 19:39:08;;;;;;;8.50;5.10;;;;;;;;;;10311034;28;20420;-82
2023/09/08 19:44:11;;;;;;;8.40;5.90;;;;;;;;;;10311147;28;20464;-83
2023/09/08 19:49:13;;;;;;;11.50;7.03;;;;;;;;;;10313458;28;20472;-82
2023/09/08 19:54:16;;;;;;;12.97;6.63;;;;;;;;;;10305662;28;20441;-82
2023/09/08 19:59:20;;;;;;;10.07;6.35;;;;;;;;;;10309492;28;20410;-82
2023/09/08 20:04:22;;;;;;;13.20;7.30;;;;;;;;;;10310857;28;20441;-82
2023/09/08 20:09:26;;;;;;;10.32;7.32;;;;;;;;;;10308524;28;20516;-82
2023/09/08 20:14:28;;;;;;;10.25;6.95;;;;;;;;;;10306169;28;20989;-82
2023/09/08 20:19:32;;;;;;;11.30;6.97;;;;;;;;;;10306899;28;20723;-82
2023/09/08 20:24:35;;;;;;;10.40;7.10;;;;;;;;;;10304499;28;20454;-82
2023/09/08 20:29:38;;;;;;;9.35;6.60;;;;;;;;;;10302948;28;20816;-83
2023/09/08 20:34:40;;;;;;;11.63;8.02;;;;;;;;;;10309552;28;21818;-83
2023/09/08 20:39:44;;;;;;;9.70;7.37;;;;;;;;;;10293604;28;20468;-82
2023/09/08 20:44:46;;;;;;;9.13;7.03;;;;;;;;;;10296807;28;20444;-82
2023/09/08 20:49:48;;;;;;;10.37;7.77;;;;;;;;;;10296486;28;20532;-81
2023/09/08 20:54:54;;;;;;;9.18;7.00;;;;;;;;;;10302686;28;20452;-83
2023/09/08 20:59:56;;;;;;;9.10;6.37;;;;;;;;;;10288951;28;20454;-83
2023/09/08 21:04:59;;;;;;;9.85;6.38;;;;;;;;;;10285808;28;20454;-83
2023/09/08 21:10:06;;;;;;;9.60;5.47;;;;;;;;;;10287814;28;20536;-83
2023/09/08 21:15:09;;;;;;;6.63;5.57;;;;;;;;;;10283052;28;20434;-83
2023/09/08 21:20:13;;;;;;;7.23;5.47;;;;;;;;;;10285982;28;21054;-84
2023/09/08 21:25:29;;;;;;;8.73;5.70;;;;;;;;;;10285983;28;20474;-83
2023/09/08 21:30:31;;;;;;;9.23;5.68;;;;;;;;;;10286779;28;20458;-84
2023/09/08 21:35:33;;;;;;;10.23;5.65;;;;;;;;;;10284846;28;20521;-83
2023/09/08 21:40:40;;;;;;;9.38;5.40;;;;;;;;;;10282821;28;20473;-83
2023/09/08 21:45:42;;;;;;;6.55;4.80;;;;;;;;;;10299593;28;20444;-82
2023/09/08 21:50:45;;;;;;;5.93;4.90;;;;;;;;;;10293858;28;21026;-82
2023/09/08 21:55:48;;;;;;;7.30;4.90;;;;;;;;;;10297446;28;20940;-83
2023/09/08 22:00:53;;;;;;;6.10;4.63;;;;;;;;;;10300562;28;20588;-83
2023/09/08 22:05:56;;;;;;;7.47;5.15;;;;;;;;;;10298343;28;20530;-84
2023/09/08 22:11:04;;;;;;;6.17;4.73;;;;;;;;;;10308937;28;20611;-83
2023/09/08 22:16:07;;;;;;;6.05;4.90;;;;;;;;;;10311864;28;20440;-83
2023/09/08 22:21:09;;;;;;;15.37;8.47;;;;;;;;;;10308868;28;20822;-83
2023/09/08 22:26:16;;;;;;;19.30;11.63;;;;;;;;;;10312347;28;20480;-86
2023/09/08 22:31:18;;;;;;;15.70;8.23;;;;;;;;;;10313903;28;20459;-85
2023/09/08 22:36:21;;;;;;;7.15;4.70;;;;;;;;;;10312667;28;20468;-86
2023/09/08 22:41:24;;;;;;;5.93;4.70;;;;;;;;;;10313982;28;20410;-85
2023/09/08 22:46:27;;;;;;;8.10;5.20;;;;;;;;;;10311972;28;20425;-85
2023/09/08 22:51:29;;;;;;;5.88;4.80;;;;;;;;;;10310134;28;20461;-85
2023/09/08 22:56:33;;;;;;;6.88;4.85;;;;;;;;;;10312835;28;20496;-84
2023/09/08 23:01:36;;;;;;;7.00;4.93;;;;;;;;;;10318022;23;20418;-85
2023/09/08 23:06:38;;;;;;;5.60;4.90;;;;;;;;;;10301382;28;20417;-86
2023/09/08 23:11:42;;;;;;;5.90;5.10;;;;;;;;;;10298641;28;20461;-85
2023/09/08 23:16:44;;;;;;;6.40;4.85;;;;;;;;;;10300473;28;20479;-85
2023/09/08 23:21:46;;;;;;;7.13;4.57;;;;;;;;;;10300006;28;20447;-85
2023/09/08 23:26:50;;;;;;;7.65;5.40;;;;;;;;;;10304311;28;20419;-85
2023/09/08 23:31:52;;;;;;;6.03;4.47;;;;;;;;;;10301609;28;21049;-85
2023/09/08 23:36:57;;;;;;;7.13;4.70;;;;;;;;;;10300231;28;21021;-85
2023/09/08 23:42:02;;;;;;;8.15;5.05;;;;;;;;;;10298178;28;20443;-85
2023/09/08 23:47:06;;;;;;;6.68;5.20;;;;;;;;;;10299372;28;20473;-85
2023/09/08 23:52:08;;;;;;;5.80;5.13;;;;;;;;;;10296749;28;20461;-85
2023/09/08 23:57:12;;;;;;;6.83;5.63;;;;;;;;;;10299942;28;21200;-85
